Pagina principale
METAR-TAF:

METAR-TAF

Aeroporti :

Chatham Municipal Airport

Chatham, Massachusetts, Stati Uniti

latitudine: 41-41-15N, longitudine: 069-59-36W, altezza: 20 m

Osservazione

Il bollettino è stato emesso 12 minuti fa, alle 10:52 UTC
Vento calmo
Temperature 12°C
Umidità 88%
Pressione 1024 hPa
Visibilità: 16.1 km
Cielo sereno

METAR: KCQX 231052Z AUTO 00000KT 10SM CLR 12/10 A3025 RMK AO2 SLP244 T01170100

Ora: 07:04 (11:04 UTC)


TAF: mancante

Osservazioni e previsioni meteorologiche di più di 4000 aeroporti (messaggi METAR e TAF).

Le stazioni disponibili sono rappresentate dai dischi gialli e rossi sulla carta.

Puntare il mouse per vedere il nome della stazione.

Clicca sopra per visualizzare le osservazioni e previsioni meteorologiche.

Per cambiare la mappa : fare clic sui pulsanti verdi con una croce nera per ingrandire, il pulsante verde con un trattino per diminuire, o sulla freccia verde per le mappe adiacenti.


METAR-TAF: